sensor_id;sensor_type;location;lat;lon;timestamp;P1;durP1;ratioP1;P2;durP2;ratioP2
34405;SDS011;20658;45.630;8.886;2023-08-30T00:00:02;0.65;;;0.30;;
34405;SDS011;20658;45.630;8.886;2023-08-30T00:02:37;4.75;;;0.70;;
34405;SDS011;20658;45.630;8.886;2023-08-30T00:05:06;4.45;;;0.70;;
34405;SDS011;20658;45.630;8.886;2023-08-30T00:07:37;1.95;;;0.50;;
34405;SDS011;20658;45.630;8.886;2023-08-30T00:10:08;2.38;;;0.63;;
34405;SDS011;20658;45.630;8.886;2023-08-30T00:12:37;2.63;;;0.63;;
34405;SDS011;20658;45.630;8.886;2023-08-30T00:15:06;2.17;;;0.32;;
34405;SDS011;20658;45.630;8.886;2023-08-30T00:17:36;2.40;;;0.55;;
34405;SDS011;20658;45.630;8.886;2023-08-30T00:20:05;3.08;;;0.57;;
34405;SDS011;20658;45.630;8.886;2023-08-30T00:22:35;2.15;;;0.40;;
34405;SDS011;20658;45.630;8.886;2023-08-30T00:25:04;2.30;;;0.45;;
34405;SDS011;20658;45.630;8.886;2023-08-30T00:27:34;2.10;;;0.47;;
34405;SDS011;20658;45.630;8.886;2023-08-30T00:30:03;1.05;;;0.40;;
34405;SDS011;20658;45.630;8.886;2023-08-30T00:32:34;2.65;;;0.50;;
34405;SDS011;20658;45.630;8.886;2023-08-30T00:35:08;3.40;;;0.65;;
34405;SDS011;20658;45.630;8.886;2023-08-30T00:37:37;3.83;;;0.80;;
34405;SDS011;20658;45.630;8.886;2023-08-30T00:40:06;0.75;;;0.32;;
34405;SDS011;20658;45.630;8.886;2023-08-30T00:42:41;0.73;;;0.20;;
34405;SDS011;20658;45.630;8.886;2023-08-30T00:45:15;0.52;;;0.20;;
34405;SDS011;20658;45.630;8.886;2023-08-30T00:47:44;1.27;;;0.43;;
34405;SDS011;20658;45.630;8.886;2023-08-30T00:50:13;3.00;;;0.17;;
34405;SDS011;20658;45.630;8.886;2023-08-30T00:52:48;0.68;;;0.30;;
34405;SDS011;20658;45.630;8.886;2023-08-30T00:55:17;0.57;;;0.40;;
34405;SDS011;20658;45.630;8.886;2023-08-30T00:57:47;0.60;;;0.20;;
34405;SDS011;20658;45.630;8.886;2023-08-30T01:00:16;1.75;;;0.20;;
34405;SDS011;20658;45.630;8.886;2023-08-30T01:02:45;0.40;;;0.10;;
34405;SDS011;20658;45.630;8.886;2023-08-30T01:05:14;1.65;;;0.20;;
34405;SDS011;20658;45.630;8.886;2023-08-30T01:07:49;0.75;;;0.30;;
34405;SDS011;20658;45.630;8.886;2023-08-30T01:10:18;3.80;;;0.20;;
34405;SDS011;20658;45.630;8.886;2023-08-30T01:13:03;1.05;;;0.43;;
34405;SDS011;20658;45.630;8.886;2023-08-30T01:18:11;0.63;;;0.10;;
34405;SDS011;20658;45.630;8.886;2023-08-30T01:20:40;0.55;;;0.20;;
34405;SDS011;20658;45.630;8.886;2023-08-30T01:23:20;2.03;;;0.20;;
34405;SDS011;20658;45.630;8.886;2023-08-30T01:26:13;0.93;;;0.30;;
34405;SDS011;20658;45.630;8.886;2023-08-30T01:29:00;5.38;;;0.45;;
34405;SDS011;20658;45.630;8.886;2023-08-30T01:31:35;0.75;;;0.43;;
34405;SDS011;20658;45.630;8.886;2023-08-30T01:34:11;1.13;;;0.20;;
34405;SDS011;20658;45.630;8.886;2023-08-30T01:36:41;3.00;;;0.20;;
34405;SDS011;20658;45.630;8.886;2023-08-30T01:39:11;1.00;;;0.47;;
34405;SDS011;20658;45.630;8.886;2023-08-30T01:41:41;1.02;;;0.30;;
34405;SDS011;20658;45.630;8.886;2023-08-30T01:44:12;0.73;;;0.30;;
34405;SDS011;20658;45.630;8.886;2023-08-30T01:46:48;0.98;;;0.40;;
34405;SDS011;20658;45.630;8.886;2023-08-30T01:49:21;1.60;;;0.63;;
34405;SDS011;20658;45.630;8.886;2023-08-30T01:51:56;1.45;;;0.50;;
34405;SDS011;20658;45.630;8.886;2023-08-30T01:54:30;2.78;;;0.40;;
34405;SDS011;20658;45.630;8.886;2023-08-30T01:56:59;2.30;;;0.80;;
34405;SDS011;20658;45.630;8.886;2023-08-30T01:59:35;5.05;;;0.98;;
34405;SDS011;20658;45.630;8.886;2023-08-30T02:02:03;3.55;;;0.60;;
34405;SDS011;20658;45.630;8.886;2023-08-30T02:04:32;3.53;;;0.70;;
34405;SDS011;20658;45.630;8.886;2023-08-30T02:07:02;2.40;;;0.80;;
34405;SDS011;20658;45.630;8.886;2023-08-30T02:09:38;4.65;;;1.15;;
34405;SDS011;20658;45.630;8.886;2023-08-30T02:12:15;3.50;;;1.15;;
34405;SDS011;20658;45.630;8.886;2023-08-30T02:14:51;1.83;;;0.60;;
34405;SDS011;20658;45.630;8.886;2023-08-30T02:17:21;5.18;;;0.77;;
34405;SDS011;20658;45.630;8.886;2023-08-30T02:19:51;3.28;;;0.50;;
34405;SDS011;20658;45.630;8.886;2023-08-30T02:22:25;2.17;;;0.82;;
34405;SDS011;20658;45.630;8.886;2023-08-30T02:24:54;2.15;;;0.60;;
34405;SDS011;20658;45.630;8.886;2023-08-30T02:27:22;3.80;;;0.60;;
34405;SDS011;20658;45.630;8.886;2023-08-30T02:29:57;4.97;;;0.52;;
34405;SDS011;20658;45.630;8.886;2023-08-30T02:32:31;3.35;;;0.70;;
34405;SDS011;20658;45.630;8.886;2023-08-30T02:34:59;1.83;;;0.40;;
34405;SDS011;20658;45.630;8.886;2023-08-30T02:37:37;3.05;;;0.80;;
34405;SDS011;20658;45.630;8.886;2023-08-30T02:40:11;1.85;;;0.60;;
34405;SDS011;20658;45.630;8.886;2023-08-30T02:42:45;2.92;;;0.40;;
34405;SDS011;20658;45.630;8.886;2023-08-30T02:45:15;2.60;;;0.40;;
34405;SDS011;20658;45.630;8.886;2023-08-30T02:47:44;0.85;;;0.35;;
34405;SDS011;20658;45.630;8.886;2023-08-30T02:50:13;1.35;;;0.55;;
34405;SDS011;20658;45.630;8.886;2023-08-30T02:52:42;2.85;;;0.65;;
34405;SDS011;20658;45.630;8.886;2023-08-30T02:55:15;0.55;;;0.20;;
34405;SDS011;20658;45.630;8.886;2023-08-30T02:57:44;1.85;;;0.50;;
34405;SDS011;20658;45.630;8.886;2023-08-30T03:00:15;2.58;;;0.60;;
34405;SDS011;20658;45.630;8.886;2023-08-30T03:02:47;3.20;;;0.35;;
34405;SDS011;20658;45.630;8.886;2023-08-30T03:05:21;0.47;;;0.30;;
34405;SDS011;20658;45.630;8.886;2023-08-30T03:07:54;0.82;;;0.25;;
34405;SDS011;20658;45.630;8.886;2023-08-30T03:10:28;1.65;;;0.20;;
34405;SDS011;20658;45.630;8.886;2023-08-30T03:13:01;3.53;;;0.30;;
34405;SDS011;20658;45.630;8.886;2023-08-30T03:15:37;1.13;;;0.40;;
34405;SDS011;20658;45.630;8.886;2023-08-30T03:18:10;0.75;;;0.32;;
34405;SDS011;20658;45.630;8.886;2023-08-30T03:20:44;3.67;;;0.40;;
34405;SDS011;20658;45.630;8.886;2023-08-30T03:23:17;0.13;;;0.10;;
34405;SDS011;20658;45.630;8.886;2023-08-30T03:25:50;3.58;;;0.30;;
34405;SDS011;20658;45.630;8.886;2023-08-30T03:28:19;1.02;;;0.20;;
34405;SDS011;20658;45.630;8.886;2023-08-30T03:30:55;0.93;;;0.20;;
34405;SDS011;20658;45.630;8.886;2023-08-30T03:33:24;4.15;;;0.55;;
34405;SDS011;20658;45.630;8.886;2023-08-30T03:35:53;3.22;;;0.40;;
34405;SDS011;20658;45.630;8.886;2023-08-30T03:38:21;1.15;;;0.10;;
34405;SDS011;20658;45.630;8.886;2023-08-30T03:40:55;0.82;;;0.30;;
34405;SDS011;20658;45.630;8.886;2023-08-30T03:43:28;2.63;;;0.30;;
34405;SDS011;20658;45.630;8.886;2023-08-30T03:46:03;1.13;;;0.30;;
34405;SDS011;20658;45.630;8.886;2023-08-30T03:48:37;0.80;;;0.20;;
34405;SDS011;20658;45.630;8.886;2023-08-30T03:51:05;2.58;;;0.30;;
34405;SDS011;20658;45.630;8.886;2023-08-30T03:53:39;1.27;;;0.30;;
34405;SDS011;20658;45.630;8.886;2023-08-30T03:56:12;2.17;;;0.30;;
34405;SDS011;20658;45.630;8.886;2023-08-30T03:58:46;0.65;;;0.22;;
34405;SDS011;20658;45.630;8.886;2023-08-30T04:01:21;0.30;;;0.10;;
34405;SDS011;20658;45.630;8.886;2023-08-30T04:03:49;0.70;;;0.30;;
34405;SDS011;20658;45.630;8.886;2023-08-30T04:06:19;0.95;;;0.22;;
34405;SDS011;20658;45.630;8.886;2023-08-30T04:08:53;1.40;;;0.20;;
34405;SDS011;20658;45.630;8.886;2023-08-30T04:11:21;1.20;;;0.20;;
34405;SDS011;20658;45.630;8.886;2023-08-30T04:13:50;0.57;;;0.20;;
34405;SDS011;20658;45.630;8.886;2023-08-30T04:16:25;0.57;;;0.20;;
34405;SDS011;20658;45.630;8.886;2023-08-30T04:18:58;1.77;;;0.15;;
34405;SDS011;20658;45.630;8.886;2023-08-30T04:21:32;1.33;;;0.60;;
34405;SDS011;20658;45.630;8.886;2023-08-30T04:24:01;0.50;;;0.10;;
34405;SDS011;20658;45.630;8.886;2023-08-30T04:26:35;2.38;;;0.45;;
34405;SDS011;20658;45.630;8.886;2023-08-30T04:29:08;1.92;;;0.57;;
34405;SDS011;20658;45.630;8.886;2023-08-30T04:31:38;0.90;;;0.43;;
34405;SDS011;20658;45.630;8.886;2023-08-30T04:34:12;1.48;;;0.35;;
34405;SDS011;20658;45.630;8.886;2023-08-30T04:36:42;0.93;;;0.20;;
34405;SDS011;20658;45.630;8.886;2023-08-30T04:39:12;1.70;;;0.40;;
34405;SDS011;20658;45.630;8.886;2023-08-30T04:41:46;1.20;;;0.20;;
34405;SDS011;20658;45.630;8.886;2023-08-30T04:44:20;1.58;;;0.20;;
34405;SDS011;20658;45.630;8.886;2023-08-30T04:46:57;0.85;;;0.30;;
34405;SDS011;20658;45.630;8.886;2023-08-30T04:49:33;1.45;;;0.40;;
34405;SDS011;20658;45.630;8.886;2023-08-30T04:52:01;1.25;;;0.40;;
34405;SDS011;20658;45.630;8.886;2023-08-30T04:54:31;0.82;;;0.25;;
34405;SDS011;20658;45.630;8.886;2023-08-30T04:57:01;1.35;;;0.45;;
34405;SDS011;20658;45.630;8.886;2023-08-30T04:59:31;2.28;;;0.40;;
34405;SDS011;20658;45.630;8.886;2023-08-30T05:02:01;2.08;;;0.35;;
34405;SDS011;20658;45.630;8.886;2023-08-30T05:04:41;2.20;;;0.30;;
34405;SDS011;20658;45.630;8.886;2023-08-30T05:07:10;5.53;;;0.43;;
34405;SDS011;20658;45.630;8.886;2023-08-30T05:09:39;2.15;;;0.30;;
34405;SDS011;20658;45.630;8.886;2023-08-30T05:12:08;0.90;;;0.45;;
34405;SDS011;20658;45.630;8.886;2023-08-30T05:14:36;3.65;;;0.45;;
34405;SDS011;20658;45.630;8.886;2023-08-30T05:17:08;1.98;;;0.45;;
34405;SDS011;20658;45.630;8.886;2023-08-30T05:19:37;2.65;;;0.40;;
34405;SDS011;20658;45.630;8.886;2023-08-30T05:22:11;2.40;;;0.57;;
34405;SDS011;20658;45.630;8.886;2023-08-30T05:24:40;6.38;;;1.10;;
34405;SDS011;20658;45.630;8.886;2023-08-30T05:27:13;2.38;;;0.88;;
34405;SDS011;20658;45.630;8.886;2023-08-30T05:29:49;6.28;;;1.25;;
34405;SDS011;20658;45.630;8.886;2023-08-30T05:32:25;5.40;;;1.27;;
34405;SDS011;20658;45.630;8.886;2023-08-30T05:35:13;3.70;;;1.05;;
34405;SDS011;20658;45.630;8.886;2023-08-30T05:38:01;4.22;;;1.17;;
34405;SDS011;20658;45.630;8.886;2023-08-30T05:40:59;2.78;;;0.90;;
34405;SDS011;20658;45.630;8.886;2023-08-30T05:43:28;3.97;;;1.48;;
34405;SDS011;20658;45.630;8.886;2023-08-30T05:46:02;1.52;;;0.80;;
34405;SDS011;20658;45.630;8.886;2023-08-30T05:48:32;9.57;;;1.20;;
34405;SDS011;20658;45.630;8.886;2023-08-30T05:51:01;13.32;;;1.58;;
34405;SDS011;20658;45.630;8.886;2023-08-30T05:53:35;3.95;;;1.33;;
34405;SDS011;20658;45.630;8.886;2023-08-30T05:56:09;6.20;;;1.90;;
34405;SDS011;20658;45.630;8.886;2023-08-30T05:58:38;4.70;;;1.70;;
34405;SDS011;20658;45.630;8.886;2023-08-30T06:01:11;8.25;;;1.70;;
34405;SDS011;20658;45.630;8.886;2023-08-30T06:03:41;4.00;;;1.20;;
34405;SDS011;20658;45.630;8.886;2023-08-30T06:06:15;2.33;;;1.20;;
34405;SDS011;20658;45.630;8.886;2023-08-30T06:08:49;2.40;;;1.00;;
34405;SDS011;20658;45.630;8.886;2023-08-30T06:11:22;2.97;;;1.10;;
34405;SDS011;20658;45.630;8.886;2023-08-30T06:13:56;4.45;;;1.10;;
34405;SDS011;20658;45.630;8.886;2023-08-30T06:16:25;2.45;;;1.13;;
34405;SDS011;20658;45.630;8.886;2023-08-30T06:19:00;4.03;;;1.10;;
34405;SDS011;20658;45.630;8.886;2023-08-30T06:21:34;4.13;;;1.25;;
34405;SDS011;20658;45.630;8.886;2023-08-30T06:24:07;4.63;;;1.27;;
34405;SDS011;20658;45.630;8.886;2023-08-30T06:26:36;4.20;;;1.02;;
34405;SDS011;20658;45.630;8.886;2023-08-30T06:29:04;4.03;;;0.82;;
34405;SDS011;20658;45.630;8.886;2023-08-30T06:31:33;3.65;;;1.00;;
34405;SDS011;20658;45.630;8.886;2023-08-30T06:34:02;4.72;;;0.77;;
34405;SDS011;20658;45.630;8.886;2023-08-30T06:36:31;5.40;;;0.95;;
34405;SDS011;20658;45.630;8.886;2023-08-30T06:39:00;7.50;;;1.50;;
34405;SDS011;20658;45.630;8.886;2023-08-30T06:41:28;5.32;;;1.00;;
34405;SDS011;20658;45.630;8.886;2023-08-30T06:44:02;4.15;;;1.10;;
34405;SDS011;20658;45.630;8.886;2023-08-30T06:46:36;4.68;;;1.20;;
34405;SDS011;20658;45.630;8.886;2023-08-30T06:49:07;2.67;;;0.88;;
34405;SDS011;20658;45.630;8.886;2023-08-30T06:51:41;3.78;;;1.38;;
34405;SDS011;20658;45.630;8.886;2023-08-30T06:54:09;7.18;;;1.55;;
34405;SDS011;20658;45.630;8.886;2023-08-30T06:56:38;4.70;;;1.80;;
34405;SDS011;20658;45.630;8.886;2023-08-30T06:59:06;7.22;;;1.85;;
34405;SDS011;20658;45.630;8.886;2023-08-30T07:01:40;8.48;;;2.20;;
34405;SDS011;20658;45.630;8.886;2023-08-30T07:04:10;5.57;;;2.30;;
34405;SDS011;20658;45.630;8.886;2023-08-30T07:06:38;8.52;;;2.53;;
34405;SDS011;20658;45.630;8.886;2023-08-30T07:09:07;4.18;;;2.00;;
34405;SDS011;20658;45.630;8.886;2023-08-30T07:11:41;7.43;;;2.60;;
34405;SDS011;20658;45.630;8.886;2023-08-30T07:14:11;7.07;;;2.67;;
34405;SDS011;20658;45.630;8.886;2023-08-30T07:16:46;9.68;;;3.00;;
34405;SDS011;20658;45.630;8.886;2023-08-30T07:19:25;11.27;;;2.90;;
34405;SDS011;20658;45.630;8.886;2023-08-30T07:21:58;6.60;;;3.03;;
34405;SDS011;20658;45.630;8.886;2023-08-30T07:24:27;7.43;;;2.75;;
34405;SDS011;20658;45.630;8.886;2023-08-30T07:26:56;9.15;;;2.95;;
34405;SDS011;20658;45.630;8.886;2023-08-30T07:29:30;10.13;;;3.30;;
34405;SDS011;20658;45.630;8.886;2023-08-30T07:31:59;8.35;;;2.58;;
34405;SDS011;20658;45.630;8.886;2023-08-30T07:34:29;6.80;;;3.10;;
34405;SDS011;20658;45.630;8.886;2023-08-30T07:37:02;9.05;;;3.20;;
34405;SDS011;20658;45.630;8.886;2023-08-30T07:39:31;8.38;;;2.35;;
34405;SDS011;20658;45.630;8.886;2023-08-30T07:42:00;8.77;;;2.63;;
34405;SDS011;20658;45.630;8.886;2023-08-30T07:44:33;7.32;;;2.50;;
34405;SDS011;20658;45.630;8.886;2023-08-30T07:47:07;7.05;;;2.45;;
34405;SDS011;20658;45.630;8.886;2023-08-30T07:49:37;9.48;;;2.75;;
34405;SDS011;20658;45.630;8.886;2023-08-30T07:52:05;10.68;;;2.83;;
34405;SDS011;20658;45.630;8.886;2023-08-30T07:54:37;10.15;;;3.00;;
34405;SDS011;20658;45.630;8.886;2023-08-30T07:57:06;8.60;;;2.92;;
34405;SDS011;20658;45.630;8.886;2023-08-30T07:59:35;8.05;;;2.53;;
34405;SDS011;20658;45.630;8.886;2023-08-30T08:02:04;7.35;;;2.50;;
34405;SDS011;20658;45.630;8.886;2023-08-30T08:04:34;9.38;;;3.17;;
34405;SDS011;20658;45.630;8.886;2023-08-30T08:07:04;6.32;;;2.67;;
34405;SDS011;20658;45.630;8.886;2023-08-30T08:09:32;7.82;;;2.80;;
34405;SDS011;20658;45.630;8.886;2023-08-30T08:12:01;7.38;;;2.35;;
34405;SDS011;20658;45.630;8.886;2023-08-30T08:14:30;8.88;;;2.65;;
34405;SDS011;20658;45.630;8.886;2023-08-30T08:16:58;7.88;;;2.13;;
34405;SDS011;20658;45.630;8.886;2023-08-30T08:19:32;11.07;;;3.65;;
34405;SDS011;20658;45.630;8.886;2023-08-30T08:22:06;6.88;;;2.83;;
34405;SDS011;20658;45.630;8.886;2023-08-30T08:24:35;10.23;;;2.70;;
34405;SDS011;20658;45.630;8.886;2023-08-30T08:27:03;9.73;;;2.90;;
34405;SDS011;20658;45.630;8.886;2023-08-30T08:29:37;4.35;;;2.20;;
34405;SDS011;20658;45.630;8.886;2023-08-30T08:32:06;8.93;;;2.95;;
34405;SDS011;20658;45.630;8.886;2023-08-30T08:34:39;7.57;;;2.67;;
34405;SDS011;20658;45.630;8.886;2023-08-30T08:37:09;8.35;;;2.75;;
34405;SDS011;20658;45.630;8.886;2023-08-30T08:39:38;8.73;;;2.17;;
34405;SDS011;20658;45.630;8.886;2023-08-30T08:42:06;5.72;;;2.40;;
34405;SDS011;20658;45.630;8.886;2023-08-30T08:44:35;10.02;;;2.47;;
34405;SDS011;20658;45.630;8.886;2023-08-30T08:47:06;10.97;;;3.10;;
34405;SDS011;20658;45.630;8.886;2023-08-30T08:49:35;7.38;;;2.90;;
34405;SDS011;20658;45.630;8.886;2023-08-30T08:52:04;7.38;;;2.20;;
34405;SDS011;20658;45.630;8.886;2023-08-30T08:54:35;6.28;;;2.10;;
34405;SDS011;20658;45.630;8.886;2023-08-30T08:57:04;5.40;;;1.27;;
34405;SDS011;20658;45.630;8.886;2023-08-30T08:59:33;4.20;;;1.65;;
34405;SDS011;20658;45.630;8.886;2023-08-30T09:02:03;5.35;;;1.50;;
34405;SDS011;20658;45.630;8.886;2023-08-30T09:04:32;2.58;;;0.93;;
34405;SDS011;20658;45.630;8.886;2023-08-30T09:07:00;2.60;;;0.68;;
34405;SDS011;20658;45.630;8.886;2023-08-30T09:09:30;4.57;;;1.10;;
34405;SDS011;20658;45.630;8.886;2023-08-30T09:12:00;4.15;;;1.40;;
34405;SDS011;20658;45.630;8.886;2023-08-30T09:14:29;6.25;;;1.88;;
34405;SDS011;20658;45.630;8.886;2023-08-30T09:16:58;6.82;;;2.22;;
34405;SDS011;20658;45.630;8.886;2023-08-30T09:19:32;10.35;;;2.47;;
34405;SDS011;20658;45.630;8.886;2023-08-30T09:22:01;5.82;;;2.00;;
34405;SDS011;20658;45.630;8.886;2023-08-30T09:24:37;7.82;;;2.03;;
34405;SDS011;20658;45.630;8.886;2023-08-30T09:27:07;4.05;;;1.95;;
34405;SDS011;20658;45.630;8.886;2023-08-30T09:29:36;9.93;;;2.58;;
34405;SDS011;20658;45.630;8.886;2023-08-30T09:32:07;5.35;;;1.90;;
34405;SDS011;20658;45.630;8.886;2023-08-30T09:34:36;5.20;;;1.20;;
34405;SDS011;20658;45.630;8.886;2023-08-30T09:37:19;6.53;;;1.33;;
34405;SDS011;20658;45.630;8.886;2023-08-30T09:39:48;2.63;;;1.25;;
34405;SDS011;20658;45.630;8.886;2023-08-30T09:42:18;3.58;;;1.15;;
34405;SDS011;20658;45.630;8.886;2023-08-30T09:44:48;4.13;;;1.00;;
34405;SDS011;20658;45.630;8.886;2023-08-30T09:47:23;4.97;;;1.98;;
34405;SDS011;20658;45.630;8.886;2023-08-30T09:49:54;3.70;;;1.55;;
34405;SDS011;20658;45.630;8.886;2023-08-30T09:52:24;5.88;;;2.22;;
34405;SDS011;20658;45.630;8.886;2023-08-30T09:54:52;4.25;;;1.50;;
34405;SDS011;20658;45.630;8.886;2023-08-30T09:57:23;4.57;;;1.88;;
34405;SDS011;20658;45.630;8.886;2023-08-30T09:59:58;5.65;;;1.77;;
34405;SDS011;20658;45.630;8.886;2023-08-30T10:05:00;6.07;;;1.52;;
34405;SDS011;20658;45.630;8.886;2023-08-30T10:07:31;6.78;;;2.00;;
34405;SDS011;20658;45.630;8.886;2023-08-30T10:10:01;6.35;;;2.00;;
34405;SDS011;20658;45.630;8.886;2023-08-30T10:12:33;5.82;;;2.00;;
34405;SDS011;20658;45.630;8.886;2023-08-30T10:15:02;9.07;;;2.30;;
34405;SDS011;20658;45.630;8.886;2023-08-30T10:17:33;7.82;;;2.13;;
34405;SDS011;20658;45.630;8.886;2023-08-30T10:20:04;6.03;;;1.83;;
34405;SDS011;20658;45.630;8.886;2023-08-30T10:22:35;6.15;;;2.28;;
34405;SDS011;20658;45.630;8.886;2023-08-30T10:25:05;5.30;;;1.90;;
34405;SDS011;20658;45.630;8.886;2023-08-30T10:27:41;3.90;;;1.67;;
34405;SDS011;20658;45.630;8.886;2023-08-30T10:30:13;5.35;;;2.05;;
34405;SDS011;20658;45.630;8.886;2023-08-30T10:32:44;4.15;;;1.48;;
34405;SDS011;20658;45.630;8.886;2023-08-30T10:35:14;5.53;;;2.33;;
34405;SDS011;20658;45.630;8.886;2023-08-30T10:37:53;6.82;;;1.70;;
34405;SDS011;20658;45.630;8.886;2023-08-30T10:40:22;6.47;;;1.52;;
34405;SDS011;20658;45.630;8.886;2023-08-30T10:43:02;3.97;;;1.30;;
34405;SDS011;20658;45.630;8.886;2023-08-30T10:45:32;7.47;;;1.77;;
34405;SDS011;20658;45.630;8.886;2023-08-30T10:48:06;3.17;;;1.52;;
34405;SDS011;20658;45.630;8.886;2023-08-30T10:50:34;9.82;;;1.42;;
34405;SDS011;20658;45.630;8.886;2023-08-30T10:53:03;3.10;;;1.40;;
34405;SDS011;20658;45.630;8.886;2023-08-30T10:55:41;11.95;;;1.77;;
34405;SDS011;20658;45.630;8.886;2023-08-30T10:58:42;6.72;;;1.85;;
34405;SDS011;20658;45.630;8.886;2023-08-30T11:01:11;4.72;;;1.55;;
34405;SDS011;20658;45.630;8.886;2023-08-30T11:03:40;6.95;;;1.20;;
34405;SDS011;20658;45.630;8.886;2023-08-30T11:06:13;7.43;;;1.35;;
34405;SDS011;20658;45.630;8.886;2023-08-30T11:08:48;2.80;;;1.27;;
34405;SDS011;20658;45.630;8.886;2023-08-30T11:11:22;3.05;;;1.00;;
34405;SDS011;20658;45.630;8.886;2023-08-30T11:13:54;4.63;;;1.55;;
34405;SDS011;20658;45.630;8.886;2023-08-30T11:16:22;2.10;;;1.00;;
34405;SDS011;20658;45.630;8.886;2023-08-30T11:18:51;1.85;;;0.90;;
34405;SDS011;20658;45.630;8.886;2023-08-30T11:21:20;1.77;;;0.60;;
34405;SDS011;20658;45.630;8.886;2023-08-30T11:23:48;3.15;;;0.93;;
34405;SDS011;20658;45.630;8.886;2023-08-30T11:26:17;1.17;;;0.60;;
34405;SDS011;20658;45.630;8.886;2023-08-30T11:28:45;2.25;;;0.90;;
34405;SDS011;20658;45.630;8.886;2023-08-30T11:31:19;2.38;;;0.80;;
34405;SDS011;20658;45.630;8.886;2023-08-30T11:33:52;3.03;;;0.70;;
34405;SDS011;20658;45.630;8.886;2023-08-30T11:36:24;1.67;;;0.80;;
34405;SDS011;20658;45.630;8.886;2023-08-30T11:38:55;5.40;;;0.75;;
34405;SDS011;20658;45.630;8.886;2023-08-30T11:41:25;3.00;;;0.88;;
34405;SDS011;20658;45.630;8.886;2023-08-30T11:43:54;5.18;;;1.13;;
34405;SDS011;20658;45.630;8.886;2023-08-30T11:46:24;1.73;;;0.77;;
34405;SDS011;20658;45.630;8.886;2023-08-30T11:48:52;1.75;;;1.10;;
34405;SDS011;20658;45.630;8.886;2023-08-30T11:51:21;3.72;;;0.88;;
34405;SDS011;20658;45.630;8.886;2023-08-30T11:53:49;3.63;;;1.20;;
34405;SDS011;20658;45.630;8.886;2023-08-30T11:56:18;3.13;;;1.50;;
34405;SDS011;20658;45.630;8.886;2023-08-30T11:58:47;4.38;;;1.20;;
34405;SDS011;20658;45.630;8.886;2023-08-30T12:01:19;3.33;;;1.05;;
34405;SDS011;20658;45.630;8.886;2023-08-30T12:03:49;2.97;;;1.10;;
34405;SDS011;20658;45.630;8.886;2023-08-30T12:06:23;4.53;;;1.00;;
34405;SDS011;20658;45.630;8.886;2023-08-30T12:08:57;2.78;;;1.13;;
34405;SDS011;20658;45.630;8.886;2023-08-30T12:11:26;7.78;;;1.40;;
34405;SDS011;20658;45.630;8.886;2023-08-30T12:14:01;1.83;;;0.90;;
34405;SDS011;20658;45.630;8.886;2023-08-30T12:16:30;8.57;;;1.52;;
34405;SDS011;20658;45.630;8.886;2023-08-30T12:19:08;1.88;;;1.10;;
34405;SDS011;20658;45.630;8.886;2023-08-30T12:21:41;1.88;;;0.85;;
34405;SDS011;20658;45.630;8.886;2023-08-30T12:24:15;3.65;;;0.93;;
34405;SDS011;20658;45.630;8.886;2023-08-30T12:26:43;3.13;;;1.23;;
34405;SDS011;20658;45.630;8.886;2023-08-30T12:29:17;6.25;;;1.25;;
34405;SDS011;20658;45.630;8.886;2023-08-30T12:31:45;2.03;;;1.08;;
34405;SDS011;20658;45.630;8.886;2023-08-30T12:34:15;3.63;;;1.10;;
34405;SDS011;20658;45.630;8.886;2023-08-30T12:36:44;2.88;;;0.88;;
34405;SDS011;20658;45.630;8.886;2023-08-30T12:39:12;2.17;;;1.05;;
34405;SDS011;20658;45.630;8.886;2023-08-30T12:41:46;3.60;;;1.27;;
34405;SDS011;20658;45.630;8.886;2023-08-30T12:44:19;2.55;;;1.08;;
34405;SDS011;20658;45.630;8.886;2023-08-30T12:46:48;3.25;;;0.90;;
34405;SDS011;20658;45.630;8.886;2023-08-30T12:49:23;4.38;;;0.70;;
34405;SDS011;20658;45.630;8.886;2023-08-30T12:51:51;6.78;;;0.95;;
34405;SDS011;20658;45.630;8.886;2023-08-30T12:54:20;5.18;;;1.00;;
34405;SDS011;20658;45.630;8.886;2023-08-30T12:56:48;3.10;;;0.82;;
34405;SDS011;20658;45.630;8.886;2023-08-30T12:59:17;3.75;;;0.90;;
34405;SDS011;20658;45.630;8.886;2023-08-30T13:01:50;2.38;;;0.90;;
34405;SDS011;20658;45.630;8.886;2023-08-30T13:04:19;4.25;;;1.10;;
34405;SDS011;20658;45.630;8.886;2023-08-30T13:06:48;3.67;;;0.80;;
34405;SDS011;20658;45.630;8.886;2023-08-30T13:09:17;2.97;;;1.08;;
34405;SDS011;20658;45.630;8.886;2023-08-30T13:11:46;4.93;;;1.33;;
34405;SDS011;20658;45.630;8.886;2023-08-30T13:14:14;4.28;;;0.98;;
34405;SDS011;20658;45.630;8.886;2023-08-30T13:16:42;3.65;;;1.00;;
34405;SDS011;20658;45.630;8.886;2023-08-30T13:19:11;7.28;;;1.13;;
34405;SDS011;20658;45.630;8.886;2023-08-30T13:21:39;2.67;;;0.98;;
34405;SDS011;20658;45.630;8.886;2023-08-30T13:24:10;4.10;;;0.77;;
34405;SDS011;20658;45.630;8.886;2023-08-30T13:26:39;2.40;;;0.95;;
34405;SDS011;20658;45.630;8.886;2023-08-30T13:29:07;3.10;;;1.15;;
34405;SDS011;20658;45.630;8.886;2023-08-30T13:31:36;1.85;;;1.00;;
34405;SDS011;20658;45.630;8.886;2023-08-30T13:34:04;5.13;;;0.73;;
34405;SDS011;20658;45.630;8.886;2023-08-30T13:36:33;2.08;;;0.88;;
34405;SDS011;20658;45.630;8.886;2023-08-30T13:39:08;3.55;;;1.10;;
34405;SDS011;20658;45.630;8.886;2023-08-30T13:41:42;6.30;;;0.82;;
34405;SDS011;20658;45.630;8.886;2023-08-30T13:44:11;2.53;;;1.00;;
34405;SDS011;20658;45.630;8.886;2023-08-30T13:46:40;2.63;;;1.00;;
34405;SDS011;20658;45.630;8.886;2023-08-30T13:49:13;4.72;;;1.10;;
34405;SDS011;20658;45.630;8.886;2023-08-30T13:51:42;3.85;;;1.10;;
34405;SDS011;20658;45.630;8.886;2023-08-30T13:54:11;2.40;;;1.00;;
34405;SDS011;20658;45.630;8.886;2023-08-30T13:56:46;4.85;;;1.40;;
34405;SDS011;20658;45.630;8.886;2023-08-30T13:59:19;4.70;;;1.25;;
34405;SDS011;20658;45.630;8.886;2023-08-30T14:01:48;6.20;;;1.42;;
34405;SDS011;20658;45.630;8.886;2023-08-30T14:04:22;3.95;;;1.13;;
34405;SDS011;20658;45.630;8.886;2023-08-30T14:06:52;2.42;;;1.00;;
34405;SDS011;20658;45.630;8.886;2023-08-30T14:09:20;2.60;;;1.10;;
34405;SDS011;20658;45.630;8.886;2023-08-30T14:11:50;2.70;;;1.15;;
34405;SDS011;20658;45.630;8.886;2023-08-30T14:14:19;2.40;;;0.93;;
34405;SDS011;20658;45.630;8.886;2023-08-30T14:16:47;3.90;;;1.05;;
34405;SDS011;20658;45.630;8.886;2023-08-30T14:19:16;3.50;;;1.13;;
34405;SDS011;20658;45.630;8.886;2023-08-30T14:21:44;4.47;;;0.75;;
34405;SDS011;20658;45.630;8.886;2023-08-30T14:24:13;5.40;;;1.15;;
34405;SDS011;20658;45.630;8.886;2023-08-30T14:26:42;4.85;;;1.02;;
34405;SDS011;20658;45.630;8.886;2023-08-30T14:29:12;2.08;;;0.90;;
34405;SDS011;20658;45.630;8.886;2023-08-30T14:31:40;2.38;;;1.40;;
34405;SDS011;20658;45.630;8.886;2023-08-30T14:34:09;3.63;;;1.00;;
34405;SDS011;20658;45.630;8.886;2023-08-30T14:36:38;3.03;;;0.70;;
34405;SDS011;20658;45.630;8.886;2023-08-30T14:39:06;4.57;;;0.95;;
34405;SDS011;20658;45.630;8.886;2023-08-30T14:41:35;2.83;;;1.10;;
34405;SDS011;20658;45.630;8.886;2023-08-30T14:44:04;4.53;;;1.40;;
34405;SDS011;20658;45.630;8.886;2023-08-30T14:46:35;4.70;;;1.10;;
34405;SDS011;20658;45.630;8.886;2023-08-30T14:49:05;3.25;;;1.10;;
34405;SDS011;20658;45.630;8.886;2023-08-30T14:51:33;3.28;;;1.00;;
34405;SDS011;20658;45.630;8.886;2023-08-30T14:54:02;3.10;;;1.35;;
34405;SDS011;20658;45.630;8.886;2023-08-30T14:56:31;2.88;;;1.50;;
34405;SDS011;20658;45.630;8.886;2023-08-30T14:58:59;5.32;;;1.23;;
34405;SDS011;20658;45.630;8.886;2023-08-30T15:01:28;5.38;;;1.23;;
34405;SDS011;20658;45.630;8.886;2023-08-30T15:03:58;4.47;;;1.10;;
34405;SDS011;20658;45.630;8.886;2023-08-30T15:06:27;6.60;;;1.33;;
34405;SDS011;20658;45.630;8.886;2023-08-30T15:08:55;2.47;;;1.08;;
34405;SDS011;20658;45.630;8.886;2023-08-30T15:11:24;5.35;;;1.15;;
34405;SDS011;20658;45.630;8.886;2023-08-30T15:13:53;4.03;;;1.10;;
34405;SDS011;20658;45.630;8.886;2023-08-30T15:16:22;4.97;;;1.10;;